Terminal Aerodrome Forecast
Issued by NWS

Home | Current Version | Previous Version | Text Only | Print | Product List | Glossary On
Versions: 1 2 3 4 5 6 7 8 9 10 11 12 13 14 15 16 17 18 19 20 21 22 23 24 25 26
000
FTUS41 KAKQ 301735
TAFPHF
TAF
KPHF 301735Z 3018/3118 11009KT P6SM BKN080
     FM310800 14009KT P6SM OVC045
     FM311000 15010KT P6SM SHRA OVC050
     FM311200 15013G20KT 5SM SHRA OVC050
     FM311400 16014G22KT 3SM SHRA OVC015
     FM311600 16015G23KT 3SM SHRA OVC006=

USA.gov is the U.S. government's official web portal to all federal, state and local government web resources and services.